Terminal Aerodrome Forecast
Issued by NWS Atlanta, GA

Home | Current Version | Previous Version | Text Only | Print | Product List | Glossary On
Versions: 1 2 3 4 5 6 7 8 9 10 11 12 13 14 15 16
000
FTUS42 KFFC 211933 AAA
TAFMCN
TAF AMD
KMCN 211933Z 2120/2218 10006KT P6SM SCT035
      TEMPO 2120/2122 VRB15G22KT 4SM TSRA OVC025CB
     FM220100 12006KT P6SM OVC050
     FM220800 13005KT P6SM BKN025
     FM221000 13005KT P6SM BKN009
     FM221500 15004KT P6SM VCSH BKN025=

USA.gov is the U.S. government's official web portal to all federal, state and local government web resources and services.